createdAt,value
2019-01-30T00:00:48.453Z,0
2019-01-30T00:01:58.520Z,0
2019-01-30T00:03:08.604Z,0
2019-01-30T00:04:18.403Z,0
2019-01-30T00:05:28.186Z,0
2019-01-30T00:06:37.991Z,0
2019-01-30T00:07:48.041Z,0
2019-01-30T00:08:58.322Z,0
2019-01-30T00:10:08.378Z,0
2019-01-30T00:11:18.242Z,0
2019-01-30T00:12:28.611Z,0
2019-01-30T00:13:38.671Z,0
2019-01-30T00:14:48.964Z,0
2019-01-30T00:16:05.986Z,0
2019-01-30T00:17:16.157Z,0
2019-01-30T00:18:26.216Z,0
2019-01-30T00:19:36.281Z,0
2019-01-30T00:20:46.316Z,0
2019-01-30T00:21:56.452Z,0
2019-01-30T00:23:06.666Z,0
2019-01-30T00:24:16.472Z,0
2019-01-30T00:25:28.921Z,0
2019-01-30T00:26:38.996Z,0
2019-01-30T00:27:49.235Z,0
2019-01-30T00:28:59.137Z,0
2019-01-30T00:30:13.987Z,0
2019-01-30T00:31:24.092Z,0
2019-01-30T00:32:34.157Z,0
2019-01-30T00:33:44.227Z,0
2019-01-30T00:34:54.334Z,0
2019-01-30T00:36:04.147Z,0
2019-01-30T00:37:14.320Z,0
2019-01-30T00:38:24.399Z,0
2019-01-30T00:39:33.937Z,0
2019-01-30T00:40:43.800Z,0
2019-01-30T00:41:53.612Z,0
2019-01-30T00:43:02.950Z,0
2019-01-30T00:44:12.804Z,0
2019-01-30T00:45:23.092Z,0
2019-01-30T00:46:33.344Z,0
2019-01-30T00:47:44.702Z,0
2019-01-30T00:48:54.770Z,0
2019-01-30T00:50:05.897Z,0
2019-01-30T00:51:15.974Z,0
2019-01-30T00:52:26.030Z,0
2019-01-30T00:53:36.359Z,0
2019-01-30T00:54:46.427Z,0
2019-01-30T00:55:56.246Z,0
2019-01-30T00:57:06.337Z,0
2019-01-30T00:58:16.492Z,0
2019-01-30T00:59:26.558Z,0
2019-01-30T01:00:36.619Z,0
2019-01-30T01:01:46.416Z,0
2019-01-30T01:02:56.220Z,0
2019-01-30T01:04:06.281Z,0
2019-01-30T01:05:16.354Z,0
2019-01-30T01:06:26.419Z,0
2019-01-30T01:07:35.998Z,0
2019-01-30T01:08:46.161Z,0
2019-01-30T01:09:56.051Z,0
2019-01-30T01:11:06.471Z,0
2019-01-30T01:12:16.251Z,0
2019-01-30T01:13:26.310Z,0
2019-01-30T01:14:36.131Z,0
2019-01-30T01:15:46.140Z,0
2019-01-30T01:16:56.187Z,0
2019-01-30T01:18:06.329Z,0
2019-01-30T01:19:16.389Z,0
2019-01-30T01:20:26.203Z,0
2019-01-30T01:21:36.513Z,0
2019-01-30T01:22:46.571Z,0
2019-01-30T01:23:56.614Z,0
2019-01-30T01:25:06.684Z,0
2019-01-30T01:26:16.843Z,0
2019-01-30T01:27:26.637Z,0
2019-01-30T01:28:36.910Z,0
2019-01-30T01:29:46.627Z,0
2019-01-30T01:30:56.674Z,0
2019-01-30T01:32:06.494Z,0
2019-01-30T01:33:16.286Z,0
2019-01-30T01:34:26.331Z,0
2019-01-30T01:35:36.482Z,0
2019-01-30T01:36:46.576Z,0
2019-01-30T01:37:56.846Z,0
2019-01-30T01:39:06.918Z,0
2019-01-30T01:40:16.990Z,0
2019-01-30T01:41:27.050Z,0
2019-01-30T01:42:37.102Z,0
2019-01-30T01:43:47.168Z,0
2019-01-30T01:44:57.249Z,0
2019-01-30T01:46:07.479Z,0
2019-01-30T01:47:17.543Z,0
2019-01-30T01:48:27.818Z,0
2019-01-30T01:49:37.887Z,0
2019-01-30T01:50:47.964Z,0
2019-01-30T01:51:58.171Z,0
2019-01-30T01:53:08.082Z,0
2019-01-30T01:54:18.143Z,0
2019-01-30T01:55:28.269Z,0
2019-01-30T01:56:38.344Z,0
2019-01-30T01:57:48.506Z,0
2019-01-30T01:58:58.605Z,0
2019-01-30T02:00:09.158Z,0
2019-01-30T02:01:19.038Z,0
2019-01-30T02:02:29.100Z,0
2019-01-30T02:03:39.174Z,0
2019-01-30T02:04:49.277Z,0
2019-01-30T02:05:59.339Z,0
2019-01-30T02:07:09.153Z,0
2019-01-30T02:08:19.244Z,0
2019-01-30T02:09:29.574Z,0
2019-01-30T02:10:40.592Z,0
2019-01-30T02:11:50.658Z,0
2019-01-30T02:13:00.657Z,0
2019-01-30T02:14:10.468Z,0
2019-01-30T02:15:20.578Z,0
2019-01-30T02:16:31.042Z,0
2019-01-30T02:17:41.098Z,0
2019-01-30T02:18:51.375Z,0
2019-01-30T02:20:01.418Z,0
2019-01-30T02:21:11.483Z,0
2019-01-30T02:22:21.311Z,0
2019-01-30T02:23:31.370Z,0
2019-01-30T02:24:41.183Z,0
2019-01-30T02:25:50.984Z,0
2019-01-30T02:27:01.268Z,0
2019-01-30T02:28:11.165Z,0
2019-01-30T02:29:21.228Z,0
2019-01-30T02:30:32.118Z,0
2019-01-30T02:31:42.186Z,0
2019-01-30T02:32:52.485Z,0
2019-01-30T02:34:05.597Z,0
2019-01-30T02:35:15.665Z,0
2019-01-30T02:36:25.724Z,0
2019-01-30T02:37:35.851Z,0
2019-01-30T02:38:45.788Z,0
2019-01-30T02:39:55.872Z,0
2019-01-30T02:41:06.790Z,0
2019-01-30T02:42:17.366Z,0
2019-01-30T02:43:26.949Z,0
2019-01-30T02:44:37.006Z,0
2019-01-30T02:45:47.092Z,0
2019-01-30T02:46:57.148Z,0
2019-01-30T02:48:07.973Z,0
2019-01-30T02:49:18.125Z,0
2019-01-30T02:50:27.919Z,0
2019-01-30T02:51:37.809Z,0
2019-01-30T02:52:47.875Z,0
2019-01-30T02:53:58.014Z,0
2019-01-30T02:55:07.828Z,0
2019-01-30T02:56:18.740Z,0
2019-01-30T02:57:28.844Z,0
2019-01-30T02:58:39.143Z,0
2019-01-30T02:59:49.320Z,0
2019-01-30T03:01:08.884Z,0
2019-01-30T03:02:18.952Z,0
2019-01-30T03:34:44.874Z,0
2019-01-30T03:35:54.919Z,0
2019-01-30T03:37:06.079Z,0
2019-01-30T03:38:15.895Z,0
2019-01-30T03:39:25.679Z,0
2019-01-30T03:40:35.982Z,0
2019-01-30T03:41:45.779Z,0
2019-01-30T03:42:56.110Z,0
2019-01-30T03:44:06.150Z,0
2019-01-30T03:45:15.975Z,0
2019-01-30T03:46:25.532Z,0
2019-01-30T03:47:35.583Z,0
2019-01-30T03:48:45.633Z,0
2019-01-30T03:49:55.964Z,0
2019-01-30T03:51:06.037Z,0
2019-01-30T03:52:16.121Z,0
2019-01-30T03:53:25.916Z,0
2019-01-30T03:54:35.982Z,0
2019-01-30T03:55:45.544Z,0
2019-01-30T03:56:55.544Z,0
2019-01-30T03:58:06.267Z,0
2019-01-30T03:59:16.315Z,0
2019-01-30T04:00:26.783Z,0
2019-01-30T04:01:36.639Z,0
2019-01-30T04:02:46.425Z,0
2019-01-30T04:03:56.738Z,0
2019-01-30T04:05:06.539Z,0
2019-01-30T04:06:16.596Z,0
2019-01-30T04:07:26.660Z,0
2019-01-30T04:08:36.815Z,0
2019-01-30T04:09:46.878Z,0
2019-01-30T04:10:56.954Z,0
2019-01-30T04:12:06.765Z,0
2019-01-30T04:13:16.546Z,0
2019-01-30T04:14:26.597Z,0
2019-01-30T04:15:36.698Z,0
2019-01-30T04:16:46.248Z,0
2019-01-30T04:17:56.332Z,0
2019-01-30T04:19:06.169Z,0
2019-01-30T04:20:15.969Z,0
2019-01-30T04:21:26.042Z,0
2019-01-30T04:22:35.826Z,0
2019-01-30T04:23:45.636Z,0
2019-01-30T04:24:55.463Z,0
2019-01-30T04:26:06.459Z,0
2019-01-30T04:27:16.520Z,0
2019-01-30T04:28:26.590Z,0
2019-01-30T04:29:36.651Z,0
2019-01-30T04:30:46.723Z,0
2019-01-30T04:31:56.809Z,0
2019-01-30T04:33:07.099Z,0
2019-01-30T04:34:16.652Z,0
2019-01-30T04:35:26.751Z,0
2019-01-30T04:36:37.055Z,0
2019-01-30T04:37:47.091Z,0
2019-01-30T04:38:57.373Z,0
2019-01-30T04:40:07.270Z,0
2019-01-30T04:41:17.129Z,0
2019-01-30T04:42:27.185Z,0
2019-01-30T04:43:37.264Z,0
2019-01-30T04:44:47.317Z,0
2019-01-30T04:45:56.934Z,0
2019-01-30T04:47:06.970Z,0
2019-01-30T04:48:17.031Z,0
2019-01-30T04:49:26.585Z,0
2019-01-30T04:50:36.407Z,0
2019-01-30T04:51:46.495Z,0
2019-01-30T04:52:56.301Z,0
2019-01-30T04:54:06.385Z,0
2019-01-30T04:55:16.516Z,0
2019-01-30T04:56:26.570Z,0
2019-01-30T04:57:36.925Z,0
2019-01-30T04:58:46.738Z,0
2019-01-30T04:59:56.778Z,0
2019-01-30T05:01:06.862Z,0
2019-01-30T05:02:16.931Z,0
2019-01-30T05:03:29.609Z,0
2019-01-30T05:04:39.670Z,0
2019-01-30T05:05:49.765Z,0
2019-01-30T05:06:59.561Z,0
2019-01-30T05:08:10.308Z,0
2019-01-30T05:09:20.148Z,0
2019-01-30T05:10:29.947Z,0
2019-01-30T05:11:39.869Z,0
2019-01-30T05:12:49.937Z,0
2019-01-30T05:14:01.460Z,0
2019-01-30T05:15:11.651Z,0
2019-01-30T05:16:21.844Z,0
2019-01-30T05:17:31.964Z,0
2019-01-30T05:18:42.007Z,0
2019-01-30T05:19:52.055Z,0
2019-01-30T05:21:01.857Z,0
2019-01-30T05:22:11.385Z,0
2019-01-30T05:23:21.732Z,0
2019-01-30T05:24:31.558Z,0
2019-01-30T05:25:41.099Z,0
2019-01-30T05:26:51.136Z,0
2019-01-30T05:28:01.005Z,0
2019-01-30T05:29:11.308Z,0
2019-01-30T05:30:21.365Z,0
2019-01-30T05:31:31.741Z,0
2019-01-30T05:32:41.901Z,0
2019-01-30T05:33:51.958Z,0
2019-01-30T05:35:01.777Z,0
2019-01-30T05:36:11.837Z,0
2019-01-30T05:37:21.636Z,0
2019-01-30T05:38:31.432Z,0
2019-01-30T05:39:41.482Z,0
2019-01-30T05:40:51.276Z,0
2019-01-30T05:42:01.339Z,0
2019-01-30T05:43:11.389Z,0
2019-01-30T05:44:21.183Z,0
2019-01-30T05:45:31.268Z,0
2019-01-30T05:46:41.166Z,0
2019-01-30T05:47:51.250Z,0
2019-01-30T05:49:01.305Z,0
2019-01-30T05:50:11.124Z,0
2019-01-30T05:51:20.651Z,0
2019-01-30T05:52:30.710Z,0
2019-01-30T05:53:40.763Z,0
2019-01-30T05:54:50.824Z,0
2019-01-30T05:56:01.124Z,0
2019-01-30T05:57:11.179Z,0
2019-01-30T05:58:21.510Z,0
2019-01-30T05:59:31.321Z,0
2019-01-30T06:00:41.489Z,0
2019-01-30T06:01:52.050Z,0
2019-01-30T06:03:02.120Z,0
2019-01-30T06:04:12.204Z,0
2019-01-30T06:05:22.254Z,0
2019-01-30T06:06:32.318Z,0
2019-01-30T06:07:42.398Z,0
2019-01-30T06:08:52.504Z,0
2019-01-30T06:10:03.027Z,0
2019-01-30T06:11:14.681Z,0
2019-01-30T06:12:24.484Z,0
2019-01-30T06:13:34.530Z,0
2019-01-30T06:14:44.621Z,0
2019-01-30T06:15:54.686Z,0
2019-01-30T06:17:04.765Z,0
2019-01-30T06:18:14.860Z,0
2019-01-30T06:19:24.920Z,0
2019-01-30T06:20:34.957Z,0
2019-01-30T06:21:45.214Z,0
2019-01-30T06:22:55.308Z,0
2019-01-30T06:24:07.958Z,5
2019-01-30T06:25:18.124Z,5
2019-01-30T06:26:28.281Z,5
2019-01-30T06:27:38.338Z,5
2019-01-30T06:28:48.434Z,5
2019-01-30T06:29:58.486Z,5
2019-01-30T06:31:08.774Z,5
2019-01-30T06:32:29.365Z,5
2019-01-30T06:33:39.168Z,10
2019-01-30T06:34:49.251Z,10
2019-01-30T06:35:59.305Z,10
2019-01-30T06:37:10.681Z,10
2019-01-30T06:38:20.545Z,10
2019-01-30T06:39:30.605Z,15
2019-01-30T06:40:40.931Z,15
2019-01-30T06:41:50.998Z,15
2019-01-30T06:43:02.916Z,15
2019-01-30T06:44:13.112Z,15
2019-01-30T06:45:22.943Z,20
2019-01-30T06:46:33.018Z,20
2019-01-30T06:47:43.081Z,20
2019-01-30T06:48:52.906Z,20
2019-01-30T06:50:03.769Z,20
2019-01-30T06:51:13.833Z,20
2019-01-30T06:52:23.640Z,25
2019-01-30T06:53:33.701Z,25
2019-01-30T06:54:45.916Z,25
2019-01-30T06:55:56.092Z,25
2019-01-30T06:57:06.601Z,25
2019-01-30T06:58:16.441Z,30
2019-01-30T06:59:26.504Z,30
2019-01-30T07:00:36.556Z,30
2019-01-30T07:01:46.678Z,30
2019-01-30T07:02:56.487Z,35
2019-01-30T07:04:06.292Z,35
2019-01-30T07:05:15.844Z,35
2019-01-30T07:06:25.887Z,35
2019-01-30T07:07:36.000Z,35
2019-01-30T07:08:45.810Z,40
2019-01-30T07:09:55.608Z,45
2019-01-30T07:11:15.165Z,45
2019-01-30T07:12:24.721Z,40
2019-01-30T07:13:34.776Z,40
2019-01-30T07:14:44.838Z,40
2019-01-30T07:15:54.883Z,50
2019-01-30T07:17:07.205Z,55
2019-01-30T07:18:16.996Z,55
2019-01-30T07:19:26.812Z,55
2019-01-30T07:20:38.285Z,60
2019-01-30T07:21:48.544Z,60
2019-01-30T07:22:58.357Z,60
2019-01-30T07:24:08.421Z,65
2019-01-30T07:25:18.244Z,65
2019-01-30T07:26:28.301Z,65
2019-01-30T07:27:38.352Z,65
2019-01-30T07:28:48.457Z,65
2019-01-30T07:29:58.747Z,70
2019-01-30T07:31:09.122Z,70
2019-01-30T07:32:18.984Z,70
2019-01-30T07:33:29.061Z,70
2019-01-30T07:34:39.107Z,75
2019-01-30T07:35:48.947Z,75
2019-01-30T07:36:58.981Z,75
2019-01-30T07:38:10.681Z,80
2019-01-30T07:39:20.827Z,80
2019-01-30T07:40:30.883Z,80
2019-01-30T07:41:40.942Z,80
2019-01-30T07:42:51.003Z,85
2019-01-30T07:44:01.050Z,85
2019-01-30T07:45:11.211Z,85
2019-01-30T07:46:21.366Z,85
2019-01-30T07:47:31.446Z,90
2019-01-30T07:48:41.653Z,90
2019-01-30T07:49:51.720Z,90
2019-01-30T07:51:01.850Z,90
2019-01-30T07:52:11.519Z,90
2019-01-30T07:53:21.610Z,95
2019-01-30T07:54:31.675Z,95
2019-01-30T07:55:41.841Z,95
2019-01-30T07:56:51.899Z,95
2019-01-30T07:58:01.672Z,100
2019-01-30T07:59:11.982Z,100
2019-01-30T08:00:25.627Z,100
2019-01-30T08:01:35.698Z,100
2019-01-30T08:02:55.403Z,100
2019-01-30T08:04:05.482Z,105
2019-01-30T08:05:15.571Z,105
2019-01-30T08:06:26.969Z,105
2019-01-30T08:07:37.183Z,105
2019-01-30T08:08:49.646Z,110
2019-01-30T08:09:59.808Z,110
2019-01-30T08:11:12.238Z,110
2019-01-30T08:12:22.413Z,110
2019-01-30T08:13:32.266Z,110
2019-01-30T08:14:42.344Z,110
2019-01-30T08:15:52.483Z,110
2019-01-30T08:17:02.128Z,110
2019-01-30T08:18:12.210Z,115
2019-01-30T08:19:22.486Z,115
2019-01-30T08:20:32.602Z,115
2019-01-30T08:21:42.680Z,115
2019-01-30T08:22:53.038Z,115
2019-01-30T08:24:04.222Z,115
2019-01-30T08:25:15.173Z,120
2019-01-30T08:26:28.120Z,120
2019-01-30T08:27:40.769Z,120
2019-01-30T08:28:51.575Z,120
2019-01-30T08:30:02.572Z,120
2019-01-30T08:31:13.603Z,125
2019-01-30T08:32:27.733Z,125
2019-01-30T08:33:37.609Z,125
2019-01-30T08:34:47.669Z,125
2019-01-30T08:35:57.726Z,125
2019-01-30T08:37:08.367Z,130
2019-01-30T08:38:18.418Z,130
2019-01-30T08:39:28.491Z,130
2019-01-30T08:40:38.652Z,130
2019-01-30T08:41:48.949Z,130
2019-01-30T08:43:02.026Z,135
2019-01-30T08:44:12.102Z,135
2019-01-30T08:45:21.902Z,135
2019-01-30T08:46:32.016Z,135
2019-01-30T08:47:42.082Z,135
2019-01-30T08:48:52.146Z,140
2019-01-30T08:50:02.701Z,140
2019-01-30T08:51:12.756Z,140
2019-01-30T08:52:22.875Z,145
2019-01-30T08:53:32.691Z,180
2019-01-30T08:54:42.753Z,215
2019-01-30T08:55:52.824Z,225
2019-01-30T08:57:04.507Z,225
2019-01-30T08:58:14.577Z,215
2019-01-30T08:59:24.390Z,245
2019-01-30T09:00:34.548Z,235
2019-01-30T09:01:44.614Z,195
2019-01-30T09:02:54.660Z,185
2019-01-30T09:04:04.487Z,220
2019-01-30T09:05:14.614Z,250
2019-01-30T09:06:24.419Z,215
2019-01-30T09:07:43.808Z,165
2019-01-30T09:08:54.934Z,225
2019-01-30T09:10:08.405Z,245
2019-01-30T09:11:18.539Z,170
2019-01-30T09:12:28.388Z,165
2019-01-30T09:13:38.185Z,165
2019-01-30T09:14:48.437Z,170
2019-01-30T09:15:58.540Z,160
2019-01-30T09:17:13.430Z,165
2019-01-30T09:18:23.486Z,175
2019-01-30T09:19:33.558Z,175
2019-01-30T09:20:43.105Z,180
2019-01-30T09:21:53.431Z,180
2019-01-30T09:23:05.746Z,165
2019-01-30T09:24:16.206Z,175
2019-01-30T09:25:26.351Z,185
2019-01-30T09:26:36.433Z,170
2019-01-30T09:27:46.482Z,160
2019-01-30T09:28:56.590Z,195
2019-01-30T09:30:07.953Z,170
2019-01-30T09:31:18.097Z,165
2019-01-30T09:32:27.906Z,140
2019-01-30T09:33:38.045Z,195
2019-01-30T09:34:48.134Z,190
2019-01-30T09:35:58.290Z,180
2019-01-30T09:37:10.356Z,170
2019-01-30T09:38:20.194Z,170
2019-01-30T09:39:30.342Z,170
2019-01-30T09:40:39.993Z,170
2019-01-30T09:41:50.112Z,170
2019-01-30T09:43:00.379Z,170
2019-01-30T09:44:11.019Z,170
2019-01-30T09:45:21.209Z,170
2019-01-30T09:46:31.485Z,170
2019-01-30T09:47:41.776Z,170
2019-01-30T09:48:51.841Z,170
2019-01-30T09:50:01.989Z,170
2019-01-30T09:51:12.055Z,170
2019-01-30T09:52:31.881Z,175
2019-01-30T09:53:41.815Z,175
2019-01-30T09:54:51.971Z,175
2019-01-30T09:56:02.171Z,175
2019-01-30T09:57:12.329Z,175
2019-01-30T09:58:23.944Z,175
2019-01-30T09:59:33.888Z,175
2019-01-30T10:00:43.977Z,175
2019-01-30T10:01:54.561Z,175
2019-01-30T10:03:04.698Z,175
2019-01-30T10:04:14.350Z,175
2019-01-30T10:05:24.407Z,175
2019-01-30T10:06:33.997Z,175
2019-01-30T10:07:44.550Z,175
2019-01-30T10:08:54.715Z,175
2019-01-30T10:10:04.514Z,175
2019-01-30T10:11:14.818Z,175
2019-01-30T10:12:24.881Z,175
2019-01-30T10:13:34.542Z,175
2019-01-30T10:14:44.178Z,175
2019-01-30T10:15:54.221Z,175
2019-01-30T10:17:04.032Z,175
2019-01-30T10:18:14.121Z,175
2019-01-30T10:19:24.182Z,175
2019-01-30T10:20:34.234Z,175
2019-01-30T10:21:44.300Z,180
2019-01-30T10:22:54.408Z,180
2019-01-30T10:24:04.485Z,180
2019-01-30T10:25:14.559Z,180
2019-01-30T10:26:24.193Z,185
2019-01-30T10:27:34.449Z,180
2019-01-30T10:28:44.518Z,180
2019-01-30T10:29:54.584Z,180
2019-01-30T10:31:04.605Z,180
2019-01-30T10:32:14.460Z,180
2019-01-30T10:33:24.761Z,175
2019-01-30T10:34:34.875Z,180
2019-01-30T10:35:44.954Z,180
2019-01-30T10:36:55.012Z,180
2019-01-30T10:38:05.191Z,185
2019-01-30T10:39:15.270Z,180
2019-01-30T10:40:25.356Z,180
2019-01-30T10:41:35.451Z,180
2019-01-30T10:42:45.256Z,180
2019-01-30T10:43:54.699Z,180
2019-01-30T10:45:04.803Z,160
2019-01-30T10:46:15.059Z,180
2019-01-30T10:47:25.162Z,185
2019-01-30T10:48:36.502Z,185
2019-01-30T10:49:46.695Z,185
2019-01-30T10:50:56.765Z,180
2019-01-30T10:52:06.837Z,185
2019-01-30T10:53:16.952Z,185
2019-01-30T10:54:27.063Z,185
2019-01-30T10:55:37.150Z,185
2019-01-30T10:56:46.996Z,190
2019-01-30T10:57:57.080Z,190
2019-01-30T10:59:07.842Z,195
2019-01-30T11:00:18.356Z,120
2019-01-30T11:01:28.416Z,195
2019-01-30T11:02:38.492Z,180
2019-01-30T11:03:59.394Z,185
2019-01-30T11:05:09.587Z,195
2019-01-30T11:06:19.666Z,200
2019-01-30T11:07:29.752Z,200
2019-01-30T11:08:41.863Z,195
2019-01-30T11:09:51.726Z,195
2019-01-30T11:11:12.375Z,195
2019-01-30T11:12:22.462Z,195
2019-01-30T11:13:32.517Z,195
2019-01-30T11:14:43.576Z,200
2019-01-30T11:15:53.370Z,195
2019-01-30T11:17:03.436Z,195
2019-01-30T11:18:13.583Z,195
2019-01-30T11:19:23.646Z,195
2019-01-30T11:20:33.458Z,200
2019-01-30T11:21:43.509Z,195
2019-01-30T11:22:56.095Z,200
2019-01-30T11:24:07.370Z,200
2019-01-30T11:25:17.179Z,195
2019-01-30T11:26:28.005Z,195
2019-01-30T11:27:38.079Z,195
2019-01-30T11:28:48.158Z,200
2019-01-30T11:29:58.103Z,195
2019-01-30T11:31:08.164Z,190
2019-01-30T11:32:18.239Z,185
2019-01-30T11:33:28.331Z,190
2019-01-30T11:34:38.393Z,190
2019-01-30T11:35:48.189Z,190
2019-01-30T11:37:00.068Z,190
2019-01-30T11:38:11.496Z,190
2019-01-30T11:39:21.804Z,185
2019-01-30T11:40:32.112Z,185
2019-01-30T11:41:41.929Z,185
2019-01-30T11:42:52.042Z,190
2019-01-30T11:44:01.926Z,190
2019-01-30T11:45:12.186Z,190
2019-01-30T11:46:22.366Z,185
2019-01-30T11:47:32.206Z,180
2019-01-30T11:48:41.713Z,175
2019-01-30T11:49:51.781Z,175
2019-01-30T11:51:02.535Z,180
2019-01-30T11:52:12.627Z,180
2019-01-30T11:53:22.696Z,185
2019-01-30T11:54:43.449Z,190
2019-01-30T11:55:53.501Z,190
2019-01-30T11:57:04.546Z,190
2019-01-30T11:58:14.795Z,190
2019-01-30T11:59:25.080Z,185
2019-01-30T12:00:34.888Z,185
2019-01-30T12:01:44.701Z,195
2019-01-30T12:02:57.753Z,185
2019-01-30T12:04:17.616Z,185
2019-01-30T12:05:28.088Z,185
2019-01-30T12:06:38.151Z,180
2019-01-30T12:07:48.203Z,185
2019-01-30T12:08:58.279Z,185
2019-01-30T12:10:08.715Z,185
2019-01-30T12:11:18.843Z,185
2019-01-30T12:12:28.398Z,185
2019-01-30T12:13:38.259Z,185
2019-01-30T12:14:48.336Z,190
2019-01-30T12:15:58.417Z,185
2019-01-30T12:17:10.650Z,185
2019-01-30T12:18:20.481Z,185
2019-01-30T12:19:30.557Z,180
2019-01-30T12:20:40.364Z,180
2019-01-30T12:21:50.208Z,180
2019-01-30T12:23:00.547Z,185
2019-01-30T12:24:10.623Z,185
2019-01-30T12:25:20.695Z,185
2019-01-30T12:26:30.771Z,185
2019-01-30T12:27:40.837Z,190
2019-01-30T12:28:50.892Z,180
2019-01-30T12:30:00.744Z,180
2019-01-30T12:31:10.795Z,175
2019-01-30T12:32:20.900Z,180
2019-01-30T12:33:30.995Z,175
2019-01-30T12:34:41.057Z,175
2019-01-30T12:35:51.340Z,140
2019-01-30T12:37:03.163Z,170
2019-01-30T12:38:13.226Z,165
2019-01-30T12:39:23.026Z,160
2019-01-30T12:40:33.080Z,165
2019-01-30T12:41:45.491Z,160
2019-01-30T12:42:55.570Z,160
2019-01-30T12:44:05.765Z,120
2019-01-30T12:45:15.864Z,155
2019-01-30T12:46:26.890Z,155
2019-01-30T12:47:37.113Z,155
2019-01-30T12:48:48.845Z,165
2019-01-30T12:49:59.178Z,150
2019-01-30T12:51:09.827Z,150
2019-01-30T12:52:19.924Z,155
2019-01-30T12:53:29.977Z,150
2019-01-30T12:54:40.043Z,155
2019-01-30T12:55:50.218Z,110
2019-01-30T12:57:00.307Z,150
2019-01-30T12:58:11.040Z,155
2019-01-30T12:59:21.108Z,160
2019-01-30T13:00:31.654Z,135
2019-01-30T13:01:41.710Z,155
2019-01-30T13:02:51.531Z,150
2019-01-30T13:04:01.621Z,150
2019-01-30T13:05:12.245Z,150
2019-01-30T13:06:22.368Z,155
2019-01-30T13:07:32.438Z,155
2019-01-30T13:08:42.609Z,155
2019-01-30T13:09:52.694Z,155
2019-01-30T13:11:02.843Z,150
2019-01-30T13:12:12.938Z,150
2019-01-30T13:13:23.028Z,150
2019-01-30T13:14:33.112Z,150
2019-01-30T13:15:43.339Z,150
2019-01-30T13:16:53.698Z,150
2019-01-30T13:18:14.054Z,145
2019-01-30T13:19:27.570Z,145
2019-01-30T13:20:37.704Z,140
2019-01-30T13:21:47.625Z,140
2019-01-30T13:22:57.433Z,140
2019-01-30T13:24:09.438Z,140
2019-01-30T13:25:19.525Z,140
2019-01-30T13:26:29.707Z,140
2019-01-30T13:27:39.779Z,135
2019-01-30T13:28:49.853Z,140
2019-01-30T13:29:59.946Z,135
2019-01-30T13:31:10.290Z,135
2019-01-30T13:32:20.457Z,130
2019-01-30T13:33:30.267Z,130
2019-01-30T13:34:48.731Z,100
2019-01-30T13:35:59.098Z,90
2019-01-30T13:37:09.371Z,130
2019-01-30T13:38:19.443Z,90
2019-01-30T13:39:29.497Z,90
2019-01-30T13:40:39.570Z,85
2019-01-30T13:41:49.665Z,85
2019-01-30T13:42:59.761Z,95
2019-01-30T13:44:10.028Z,85
2019-01-30T13:45:20.100Z,80
2019-01-30T13:46:30.214Z,80
2019-01-30T13:47:42.343Z,85
2019-01-30T13:48:52.540Z,80
2019-01-30T13:50:02.397Z,80
2019-01-30T13:51:13.978Z,100
2019-01-30T13:52:24.050Z,100
2019-01-30T13:53:34.202Z,95
2019-01-30T13:54:44.284Z,80
2019-01-30T13:55:54.199Z,105
2019-01-30T13:57:05.056Z,105
2019-01-30T13:58:15.182Z,100
2019-01-30T13:59:25.278Z,100
2019-01-30T14:00:35.689Z,100
2019-01-30T14:01:45.850Z,100
2019-01-30T14:02:55.966Z,95
2019-01-30T14:04:05.580Z,90
2019-01-30T14:05:15.158Z,85
2019-01-30T14:06:25.523Z,70
2019-01-30T14:07:35.396Z,70
2019-01-30T14:08:45.578Z,65
2019-01-30T14:09:55.805Z,65
2019-01-30T14:11:06.515Z,65
2019-01-30T14:12:16.623Z,65
2019-01-30T14:13:26.749Z,65
2019-01-30T14:14:37.007Z,65
2019-01-30T14:15:47.290Z,65
2019-01-30T14:16:57.422Z,65
2019-01-30T14:18:07.304Z,65
2019-01-30T14:19:17.515Z,65
2019-01-30T14:20:27.741Z,65
2019-01-30T14:21:37.809Z,65
2019-01-30T14:22:47.731Z,65
2019-01-30T14:23:57.718Z,70
2019-01-30T14:25:07.909Z,65
2019-01-30T14:26:17.801Z,80
2019-01-30T14:27:28.022Z,80
2019-01-30T14:28:37.742Z,80
2019-01-30T14:29:57.895Z,70
2019-01-30T14:31:09.603Z,65
2019-01-30T14:32:22.302Z,65
2019-01-30T14:33:32.734Z,65
2019-01-30T14:34:42.886Z,60
2019-01-30T14:35:52.798Z,60
2019-01-30T14:37:04.858Z,55
2019-01-30T14:38:15.146Z,55
2019-01-30T14:39:25.026Z,50
2019-01-30T14:40:34.963Z,50
2019-01-30T14:41:45.360Z,50
2019-01-30T14:42:55.360Z,45
2019-01-30T14:44:05.235Z,45
2019-01-30T14:45:15.483Z,45
2019-01-30T14:46:25.869Z,40
2019-01-30T14:47:36.163Z,40
2019-01-30T14:48:46.316Z,40
2019-01-30T14:49:56.457Z,40
2019-01-30T14:51:06.674Z,40
2019-01-30T14:52:18.894Z,35
2019-01-30T14:53:29.132Z,35
2019-01-30T14:54:39.326Z,35
2019-01-30T14:55:49.212Z,35
2019-01-30T14:56:59.311Z,30
2019-01-30T14:58:09.514Z,30
2019-01-30T14:59:19.833Z,30
2019-01-30T15:00:30.086Z,30
2019-01-30T15:01:40.261Z,30
2019-01-30T15:02:50.525Z,30
2019-01-30T15:04:00.437Z,30
2019-01-30T15:05:21.335Z,25
2019-01-30T15:06:32.035Z,25
2019-01-30T15:07:42.241Z,25
2019-01-30T15:08:52.442Z,25
2019-01-30T15:10:05.725Z,25
2019-01-30T15:11:15.950Z,20
2019-01-30T15:12:25.897Z,20
2019-01-30T15:13:36.017Z,20
2019-01-30T15:14:46.273Z,20
2019-01-30T15:15:56.596Z,20
2019-01-30T15:17:06.802Z,20
2019-01-30T15:18:16.936Z,20
2019-01-30T15:19:26.908Z,20
2019-01-30T15:20:37.063Z,15
2019-01-30T15:21:47.184Z,15
2019-01-30T15:22:57.259Z,15
2019-01-30T15:24:07.830Z,15
2019-01-30T15:25:17.622Z,15
2019-01-30T15:26:27.701Z,15
2019-01-30T15:27:37.817Z,15
2019-01-30T15:28:47.622Z,10
2019-01-30T15:29:57.449Z,10
2019-01-30T15:31:07.526Z,10
2019-01-30T15:32:17.336Z,10
2019-01-30T15:33:27.244Z,10
2019-01-30T15:34:37.314Z,10
2019-01-30T15:35:47.399Z,10
2019-01-30T15:36:56.973Z,5
2019-01-30T15:38:06.863Z,5
2019-01-30T15:39:16.932Z,5
2019-01-30T15:40:26.805Z,5
2019-01-30T15:41:36.896Z,5
2019-01-30T15:42:56.277Z,5
2019-01-30T15:44:06.360Z,5
2019-01-30T15:45:19.619Z,5
2019-01-30T15:46:29.693Z,5
2019-01-30T15:47:39.768Z,0
2019-01-30T15:48:49.884Z,0
2019-01-30T15:50:00.095Z,0
2019-01-30T15:51:10.259Z,0
2019-01-30T15:52:20.374Z,0
2019-01-30T15:53:30.500Z,0
2019-01-30T15:54:40.343Z,0
2019-01-30T15:55:50.524Z,0
2019-01-30T15:57:00.584Z,0
2019-01-30T15:58:13.880Z,0
2019-01-30T15:59:23.967Z,0
2019-01-30T16:00:36.506Z,0
2019-01-30T16:01:46.790Z,0
2019-01-30T16:02:56.896Z,0
2019-01-30T16:04:13.806Z,0
2019-01-30T16:05:23.770Z,0
2019-01-30T16:06:33.871Z,0
2019-01-30T16:07:43.693Z,0
2019-01-30T16:08:53.783Z,0
2019-01-30T16:10:06.129Z,0
2019-01-30T16:11:16.230Z,0
2019-01-30T16:12:26.319Z,0
2019-01-30T16:13:36.141Z,0
2019-01-30T16:14:45.966Z,0
2019-01-30T16:15:56.133Z,0
2019-01-30T16:17:06.222Z,0
2019-01-30T16:18:16.426Z,0
2019-01-30T16:19:26.527Z,0
2019-01-30T16:20:36.451Z,0
2019-01-30T16:21:46.552Z,0
2019-01-30T16:22:56.729Z,0
2019-01-30T16:24:06.885Z,0
2019-01-30T16:25:21.549Z,0
2019-01-30T16:26:31.109Z,0
2019-01-30T16:27:40.946Z,0
2019-01-30T16:29:04.314Z,0
2019-01-30T16:30:14.380Z,0
2019-01-30T16:31:24.480Z,0
2019-01-30T16:32:34.353Z,0
2019-01-30T16:33:44.430Z,0
2019-01-30T16:34:54.518Z,0
2019-01-30T16:36:07.538Z,0
2019-01-30T16:37:17.639Z,0
2019-01-30T16:38:27.824Z,0
2019-01-30T16:39:38.864Z,0
2019-01-30T16:40:48.800Z,0
2019-01-30T16:41:58.859Z,0
2019-01-30T16:43:08.699Z,0
2019-01-30T16:44:18.824Z,0
2019-01-30T16:45:28.917Z,0
2019-01-30T16:46:39.014Z,0
2019-01-30T16:47:49.141Z,0
2019-01-30T16:48:59.045Z,0
2019-01-30T16:50:09.223Z,0
2019-01-30T16:51:19.276Z,0
2019-01-30T16:52:29.423Z,0
2019-01-30T16:53:39.500Z,0
2019-01-30T16:54:49.555Z,0
2019-01-30T16:55:59.377Z,0
2019-01-30T16:57:09.442Z,0
2019-01-30T16:58:19.536Z,0
2019-01-30T16:59:29.589Z,0
2019-01-30T17:00:39.642Z,0
2019-01-30T17:01:49.753Z,0
2019-01-30T17:02:59.565Z,0
2019-01-30T17:04:09.634Z,0
2019-01-30T17:05:19.759Z,0
2019-01-30T17:06:29.592Z,0
2019-01-30T17:07:39.668Z,0
2019-01-30T17:08:50.003Z,0
2019-01-30T17:09:59.884Z,0
2019-01-30T17:11:11.025Z,0
2019-01-30T17:12:21.084Z,0
2019-01-30T17:13:31.269Z,0
2019-01-30T17:14:41.340Z,0
2019-01-30T17:15:51.317Z,0
2019-01-30T17:17:03.386Z,0
2019-01-30T17:18:13.476Z,0
2019-01-30T17:19:23.310Z,0
2019-01-30T17:20:33.418Z,0